createdAt,value
2018-07-10T00:04:07.612Z,4.63
2018-07-10T00:06:50.467Z,4.30
2018-07-10T00:09:29.820Z,4.40
2018-07-10T00:11:58.345Z,4.27
2018-07-10T00:14:26.410Z,4.33
2018-07-10T00:16:54.803Z,4.47
2018-07-10T00:19:22.915Z,4.20
2018-07-10T00:21:51.275Z,4.83
2018-07-10T00:24:19.663Z,4.50
2018-07-10T00:26:48.051Z,4.47
2018-07-10T00:29:16.477Z,4.53
2018-07-10T00:31:44.608Z,4.60
2018-07-10T00:34:13.012Z,4.70
2018-07-10T00:36:41.399Z,4.30
2018-07-10T00:39:10.697Z,4.50
2018-07-10T00:41:40.159Z,4.33
2018-07-10T00:44:08.975Z,4.60
2018-07-10T00:46:39.012Z,4.40
2018-07-10T00:49:07.431Z,4.37
2018-07-10T00:51:38.771Z,4.33
2018-07-10T00:54:07.369Z,4.13
2018-07-10T00:56:35.859Z,4.40
2018-07-10T00:59:05.023Z,4.20
2018-07-10T01:01:33.849Z,4.00
2018-07-10T01:04:02.259Z,4.53
2018-07-10T01:06:31.145Z,4.50
2018-07-10T01:08:59.571Z,4.20
2018-07-10T01:11:28.021Z,4.37
2018-07-10T01:13:56.078Z,4.30
2018-07-10T01:16:34.775Z,4.30
2018-07-10T01:19:06.092Z,4.27
2018-07-10T01:21:34.473Z,4.47
2018-07-10T01:24:04.246Z,4.20
2018-07-10T01:26:36.513Z,4.70
2018-07-10T01:29:10.310Z,4.67
2018-07-10T01:31:40.244Z,4.30
2018-07-10T01:34:08.618Z,4.60
2018-07-10T01:36:36.718Z,4.70
2018-07-10T01:39:05.521Z,4.60
2018-07-10T01:41:33.960Z,4.00
2018-07-10T01:44:02.047Z,4.17
2018-07-10T01:46:30.462Z,4.10
2018-07-10T01:48:58.898Z,4.30
2018-07-10T01:51:27.358Z,3.97
2018-07-10T01:53:55.436Z,4.23
2018-07-10T01:56:23.855Z,4.17
2018-07-10T01:58:52.294Z,4.00
2018-07-10T02:01:20.675Z,4.30
2018-07-10T02:03:49.116Z,4.40
2018-07-10T02:06:17.526Z,4.30
2018-07-10T02:08:45.956Z,4.10
2018-07-10T02:11:14.398Z,4.13
2018-07-10T02:13:42.774Z,4.50
2018-07-10T02:16:11.220Z,4.23
2018-07-10T02:18:39.644Z,4.00
2018-07-10T02:21:09.069Z,4.30
2018-07-10T02:23:40.362Z,4.20
2018-07-10T02:26:10.345Z,4.13
2018-07-10T02:28:38.782Z,3.80
2018-07-10T02:31:07.230Z,3.90
2018-07-10T02:33:35.661Z,4.10
2018-07-10T02:36:04.235Z,4.07
2018-07-10T02:38:33.734Z,3.70
2018-07-10T02:41:02.118Z,4.03
2018-07-10T02:43:30.518Z,4.00
2018-07-10T02:45:59.693Z,3.90
2018-07-10T02:48:31.110Z,4.17
2018-07-10T02:51:00.261Z,4.00
2018-07-10T02:53:30.485Z,3.47
2018-07-10T02:55:58.867Z,4.00
2018-07-10T02:58:28.368Z,4.10
2018-07-10T03:00:57.010Z,4.17
2018-07-10T03:03:25.515Z,3.87
2018-07-10T03:05:53.929Z,4.30
2018-07-10T03:08:22.603Z,3.90
2018-07-10T03:10:50.998Z,4.20
2018-07-10T03:13:19.521Z,4.10
2018-07-10T03:15:47.907Z,3.80
2018-07-10T03:18:16.407Z,4.10
2018-07-10T03:20:45.611Z,3.77
2018-07-10T03:23:13.981Z,3.80
2018-07-10T03:25:42.463Z,3.93
2018-07-10T03:28:10.969Z,3.90
2018-07-10T03:30:39.367Z,3.70
2018-07-10T03:33:07.763Z,4.10
2018-07-10T03:35:36.179Z,3.93
2018-07-10T03:38:04.585Z,3.90
2018-07-10T03:40:32.994Z,3.77
2018-07-10T03:43:01.331Z,3.97
2018-07-10T03:45:29.845Z,3.80
2018-07-10T03:47:58.835Z,3.97
2018-07-10T03:50:27.481Z,3.90
2018-07-10T03:52:55.938Z,3.63
2018-07-10T03:55:24.800Z,4.13
2018-07-10T03:57:55.206Z,3.70
2018-07-10T04:00:23.814Z,3.97
2018-07-10T04:02:52.641Z,3.73
2018-07-10T04:05:22.202Z,4.03
2018-07-10T04:07:53.406Z,3.50
2018-07-10T04:10:24.514Z,3.70
2018-07-10T04:12:52.953Z,3.60
2018-07-10T04:15:21.387Z,4.00
2018-07-10T04:18:09.390Z,3.67
2018-07-10T04:20:55.818Z,3.70
2018-07-10T04:23:26.288Z,3.90
2018-07-10T04:25:56.134Z,3.53
2018-07-10T04:28:29.862Z,3.60
2018-07-10T04:31:23.904Z,4.33
2018-07-10T04:33:52.328Z,4.03
2018-07-10T04:36:20.752Z,3.80
2018-07-10T04:38:54.521Z,3.73
2018-07-10T04:41:26.549Z,3.67
2018-07-10T04:44:07.044Z,3.63
2018-07-10T04:46:37.615Z,3.60
2018-07-10T04:49:14.635Z,3.57
2018-07-10T04:51:47.128Z,3.47
2018-07-10T04:54:27.209Z,3.70
2018-07-10T04:57:01.904Z,3.73
2018-07-10T04:59:32.336Z,3.80
2018-07-10T05:02:00.846Z,3.33
2018-07-10T05:04:29.401Z,3.70
2018-07-10T05:07:01.208Z,3.57
2018-07-10T05:09:29.660Z,3.60
2018-07-10T05:11:58.150Z,3.50
2018-07-10T05:14:26.200Z,3.30
2018-07-10T05:16:54.606Z,3.83
2018-07-10T05:19:23.068Z,3.73
2018-07-10T05:21:51.210Z,3.23
2018-07-10T05:24:19.714Z,3.63
2018-07-10T05:26:48.147Z,3.90
2018-07-10T05:29:16.546Z,3.60
2018-07-10T05:31:45.035Z,3.73
2018-07-10T05:34:13.406Z,3.50
2018-07-10T05:36:42.682Z,3.73
2018-07-10T05:39:11.214Z,3.87
2018-07-10T05:41:43.976Z,4.00
2018-07-10T05:44:16.306Z,3.57
2018-07-10T05:46:44.745Z,3.30
2018-07-10T05:49:12.858Z,3.30
2018-07-10T05:51:49.309Z,3.50
2018-07-10T05:54:17.756Z,3.70
2018-07-10T05:56:46.201Z,3.77
2018-07-10T05:59:14.586Z,4.00
2018-07-10T06:01:43.175Z,3.93
2018-07-10T06:04:12.422Z,3.93
2018-07-10T06:06:41.084Z,4.50
2018-07-10T06:09:09.158Z,3.27
2018-07-10T06:11:37.469Z,4.00
2018-07-10T06:14:06.096Z,3.80
2018-07-10T06:16:35.858Z,3.40
2018-07-10T06:19:04.286Z,3.80
2018-07-10T06:21:42.213Z,3.50
2018-07-10T06:24:28.919Z,3.70
2018-07-10T06:27:04.562Z,3.30
2018-07-10T06:29:39.141Z,3.60
2018-07-10T06:32:07.589Z,3.27
2018-07-10T06:34:37.719Z,3.20
2018-07-10T06:37:08.144Z,3.70
2018-07-10T06:39:36.567Z,3.23
2018-07-10T06:42:15.962Z,3.27
2018-07-10T06:44:47.754Z,3.50
2018-07-10T06:47:26.511Z,3.27
2018-07-10T06:49:55.168Z,3.30
2018-07-10T06:52:23.854Z,3.40
2018-07-10T06:55:04.137Z,3.60
2018-07-10T06:57:33.813Z,3.57
2018-07-10T07:00:04.984Z,3.80
2018-07-10T07:02:34.368Z,3.63
2018-07-10T07:05:02.882Z,3.53
2018-07-10T07:07:32.859Z,3.33
2018-07-10T07:10:03.691Z,3.40
2018-07-10T07:12:32.449Z,3.63
2018-07-10T07:15:01.135Z,3.70
2018-07-10T07:17:29.653Z,3.60
2018-07-10T07:19:58.129Z,3.73
2018-07-10T07:22:33.661Z,3.33
2018-07-10T07:25:02.451Z,3.43
2018-07-10T07:27:33.425Z,3.63
2018-07-10T07:30:02.182Z,3.50
2018-07-10T07:32:30.948Z,3.53
2018-07-10T07:34:59.502Z,3.30
2018-07-10T07:37:27.808Z,3.33
2018-07-10T07:39:57.884Z,3.40
2018-07-10T07:42:27.688Z,3.30
2018-07-10T07:44:55.886Z,3.13
2018-07-10T07:47:28.095Z,3.17
2018-07-10T07:49:56.700Z,3.03
2018-07-10T07:52:27.297Z,3.07
2018-07-10T07:54:56.440Z,3.10
2018-07-10T07:57:25.230Z,3.17
2018-07-10T07:59:53.808Z,3.00
2018-07-10T08:02:23.112Z,2.77
2018-07-10T08:04:51.982Z,3.20
2018-07-10T08:07:21.548Z,2.90
2018-07-10T08:09:50.648Z,3.30
2018-07-10T08:12:19.379Z,3.03
2018-07-10T08:14:47.867Z,3.13
2018-07-10T08:17:16.414Z,2.63
2018-07-10T08:19:46.123Z,3.10
2018-07-10T08:22:14.601Z,2.90
2018-07-10T08:24:43.049Z,3.00
2018-07-10T08:27:11.575Z,3.20
2018-07-10T08:29:40.630Z,3.30
2018-07-10T08:32:09.098Z,3.27
2018-07-10T08:34:37.668Z,3.20
2018-07-10T08:37:06.178Z,3.43
2018-07-10T08:39:34.606Z,3.23
2018-07-10T08:42:04.017Z,2.90
2018-07-10T08:44:32.488Z,3.30
2018-07-10T08:47:00.586Z,3.17
2018-07-10T08:49:31.642Z,3.50
2018-07-10T08:52:00.544Z,3.30
2018-07-10T08:54:29.082Z,3.20
2018-07-10T08:56:57.709Z,3.10
2018-07-10T08:59:26.143Z,2.90
2018-07-10T09:01:54.254Z,3.00
2018-07-10T09:04:22.807Z,3.47
2018-07-10T09:06:51.285Z,3.47
2018-07-10T09:09:19.817Z,3.27
2018-07-10T09:11:48.250Z,3.47
2018-07-10T09:14:17.187Z,3.53
2018-07-10T09:16:46.087Z,3.40
2018-07-10T09:19:18.098Z,3.20
2018-07-10T09:21:50.616Z,3.53
2018-07-10T09:24:20.724Z,3.40
2018-07-10T09:26:52.074Z,3.30
2018-07-10T09:29:21.819Z,3.03
2018-07-10T09:31:50.500Z,2.70
2018-07-10T09:34:18.711Z,3.00
2018-07-10T09:36:47.212Z,2.83
2018-07-10T09:39:15.650Z,2.67
2018-07-10T09:41:44.222Z,2.70
2018-07-10T09:44:13.160Z,2.77
2018-07-10T09:46:41.627Z,2.70
2018-07-10T09:49:10.250Z,2.60
2018-07-10T09:51:40.806Z,2.80
2018-07-10T09:54:09.138Z,2.80
2018-07-10T09:56:37.573Z,2.90
2018-07-10T09:59:05.988Z,2.60
2018-07-10T10:01:35.501Z,2.80
2018-07-10T10:04:04.945Z,2.77
2018-07-10T10:06:34.271Z,2.80
2018-07-10T10:09:02.852Z,2.80
2018-07-10T10:11:31.294Z,2.73
2018-07-10T10:13:59.817Z,2.50
2018-07-10T10:16:28.259Z,2.60
2018-07-10T10:18:58.217Z,2.47
2018-07-10T10:21:28.285Z,2.63
2018-07-10T10:23:58.274Z,2.47
2018-07-10T10:26:27.868Z,2.50
2018-07-10T10:28:56.346Z,2.50
2018-07-10T10:31:24.810Z,2.47
2018-07-10T10:33:53.328Z,2.33
2018-07-10T10:36:21.767Z,2.40
2018-07-10T10:38:50.855Z,2.30
2018-07-10T10:41:19.278Z,2.50
2018-07-10T10:43:48.346Z,2.30
2018-07-10T10:46:19.246Z,2.53
2018-07-10T10:48:47.591Z,2.60
2018-07-10T10:51:16.594Z,2.87
2018-07-10T10:53:45.066Z,2.90
2018-07-10T10:56:13.553Z,2.70
2018-07-10T10:58:42.134Z,2.47
2018-07-10T11:01:10.606Z,2.40
2018-07-10T11:03:39.196Z,2.90
2018-07-10T11:06:07.684Z,2.33
2018-07-10T11:08:36.320Z,2.40
2018-07-10T11:11:04.897Z,2.60
2018-07-10T11:13:33.364Z,2.40
2018-07-10T11:16:01.816Z,2.60
2018-07-10T11:18:37.807Z,2.30
2018-07-10T11:21:20.595Z,2.47
2018-07-10T11:23:50.730Z,2.33
2018-07-10T11:26:24.789Z,2.27
2018-07-10T11:28:53.395Z,2.30
2018-07-10T11:31:21.815Z,2.37
2018-07-10T11:33:50.313Z,2.40
2018-07-10T11:36:18.770Z,2.60
2018-07-10T11:38:47.309Z,2.53
2018-07-10T11:41:16.406Z,2.50
2018-07-10T11:43:45.061Z,2.50
2018-07-10T11:46:13.542Z,2.23
2018-07-10T11:48:42.056Z,2.47
2018-07-10T11:51:10.544Z,2.47
2018-07-10T11:53:39.335Z,2.30
2018-07-10T11:56:07.767Z,2.83
2018-07-10T11:58:36.233Z,2.57
2018-07-10T12:01:04.657Z,2.57
2018-07-10T12:03:38.036Z,2.53
2018-07-10T12:06:07.098Z,2.30
2018-07-10T12:08:35.493Z,2.20
2018-07-10T12:11:14.207Z,2.50
2018-07-10T12:13:42.755Z,2.37
2018-07-10T12:16:11.488Z,2.40
2018-07-10T12:18:39.991Z,2.40
2018-07-10T12:21:09.743Z,2.30
2018-07-10T12:23:38.148Z,2.40
2018-07-10T12:26:07.591Z,2.20
2018-07-10T12:28:36.053Z,2.30
2018-07-10T12:31:04.866Z,2.40
2018-07-10T12:33:33.491Z,2.40
2018-07-10T12:36:02.344Z,2.57
2018-07-10T12:38:30.475Z,2.77
2018-07-10T12:40:58.955Z,2.50
2018-07-10T12:43:27.869Z,2.17
2018-07-10T12:45:56.293Z,2.60
2018-07-10T12:48:24.856Z,2.40
2018-07-10T12:50:53.290Z,2.40
2018-07-10T12:53:21.789Z,2.40
2018-07-10T12:55:50.333Z,2.70
2018-07-10T12:58:18.856Z,2.60
2018-07-10T13:00:47.319Z,2.43
2018-07-10T13:03:16.568Z,2.87
2018-07-10T13:05:49.611Z,2.20
2018-07-10T13:08:19.016Z,2.57
2018-07-10T13:10:47.454Z,2.33
2018-07-10T13:13:16.321Z,2.87
2018-07-10T13:15:45.185Z,2.73
2018-07-10T13:18:13.712Z,2.90
2018-07-10T13:20:41.805Z,2.70
2018-07-10T13:23:10.310Z,2.50
2018-07-10T13:25:38.809Z,2.60
2018-07-10T13:28:07.241Z,2.80
2018-07-10T13:30:35.699Z,3.00
2018-07-10T13:33:04.203Z,2.77
2018-07-10T13:35:34.427Z,2.80
2018-07-10T13:38:03.933Z,2.40
2018-07-10T13:40:33.789Z,2.97
2018-07-10T13:43:02.275Z,2.87
2018-07-10T13:45:31.395Z,2.63
2018-07-10T13:47:59.983Z,2.70
2018-07-10T13:50:30.295Z,3.10
2018-07-10T13:52:59.704Z,2.93
2018-07-10T13:55:28.714Z,2.50
2018-07-10T13:58:07.502Z,2.80
2018-07-10T14:00:37.561Z,3.00
2018-07-10T14:03:05.958Z,3.10
2018-07-10T14:05:34.393Z,2.97
2018-07-10T14:08:02.885Z,2.80
2018-07-10T14:10:31.459Z,2.97
2018-07-10T14:13:00.153Z,2.97
2018-07-10T14:15:29.212Z,3.10
2018-07-10T14:17:58.206Z,2.70
2018-07-10T14:20:27.008Z,2.60
2018-07-10T14:22:57.775Z,3.07
2018-07-10T14:25:26.261Z,3.10
2018-07-10T14:27:54.724Z,3.00
2018-07-10T14:30:23.191Z,2.80
2018-07-10T14:32:51.639Z,3.03
2018-07-10T14:35:19.739Z,2.87
2018-07-10T14:37:48.887Z,2.90
2018-07-10T14:40:17.711Z,2.87
2018-07-10T14:42:47.642Z,2.60
2018-07-10T14:45:16.098Z,2.90
2018-07-10T14:47:45.376Z,2.83
2018-07-10T14:50:14.404Z,3.87
2018-07-10T14:52:43.412Z,3.77
2018-07-10T14:55:11.929Z,3.80
2018-07-10T14:57:40.473Z,3.57
2018-07-10T15:00:09.054Z,3.40
2018-07-10T15:02:37.491Z,3.47
2018-07-10T15:05:05.577Z,3.60
2018-07-10T15:07:33.960Z,3.73
2018-07-10T15:10:02.373Z,3.67
2018-07-10T15:12:30.783Z,3.97
2018-07-10T15:14:59.576Z,3.57
2018-07-10T15:17:33.348Z,3.63
2018-07-10T15:20:04.507Z,3.87
2018-07-10T15:22:34.333Z,4.40
2018-07-10T15:25:02.855Z,4.27
2018-07-10T15:27:31.271Z,4.37
2018-07-10T15:29:59.790Z,5.03
2018-07-10T15:32:27.870Z,4.87
2018-07-10T15:34:56.534Z,4.50
2018-07-10T15:37:25.024Z,4.70
2018-07-10T15:39:54.209Z,5.03
2018-07-10T15:42:22.286Z,5.00
2018-07-10T15:44:50.712Z,4.97
2018-07-10T15:47:19.270Z,5.07
2018-07-10T15:49:47.759Z,5.00
2018-07-10T15:52:16.309Z,5.43
2018-07-10T15:54:44.720Z,6.03
2018-07-10T15:57:13.127Z,5.20
2018-07-10T15:59:41.634Z,4.80
2018-07-10T16:02:10.096Z,4.97
2018-07-10T16:04:38.548Z,4.40
2018-07-10T16:07:08.002Z,4.90
2018-07-10T16:09:36.158Z,5.30
2018-07-10T16:12:05.790Z,4.87
2018-07-10T16:14:36.494Z,5.00
2018-07-10T16:17:21.989Z,4.93
2018-07-10T16:19:51.809Z,4.93
2018-07-10T16:22:23.496Z,5.00
2018-07-10T16:24:56.143Z,4.83
2018-07-10T16:27:34.533Z,5.00
2018-07-10T16:30:04.040Z,5.50
2018-07-10T16:32:36.135Z,6.07
2018-07-10T16:35:04.225Z,5.27
2018-07-10T16:37:32.722Z,5.90
2018-07-10T16:40:01.865Z,5.50
2018-07-10T16:42:35.380Z,5.77
2018-07-10T16:45:04.020Z,5.33
2018-07-10T16:47:42.640Z,5.90
2018-07-10T16:50:11.190Z,6.37
2018-07-10T16:52:45.360Z,6.23
2018-07-10T16:55:14.253Z,6.73
2018-07-10T16:57:42.554Z,6.13
2018-07-10T17:00:10.664Z,6.87
2018-07-10T17:02:39.185Z,6.73
2018-07-10T17:05:07.630Z,6.37
2018-07-10T17:07:36.088Z,7.10
2018-07-10T17:10:04.592Z,7.70
2018-07-10T17:12:33.034Z,7.27
2018-07-10T17:15:01.728Z,7.17
2018-07-10T17:17:30.241Z,7.57
2018-07-10T17:19:58.687Z,7.57
2018-07-10T17:22:27.195Z,7.67
2018-07-10T17:24:56.209Z,7.67
2018-07-10T17:27:30.839Z,8.53
2018-07-10T17:29:59.726Z,7.27
2018-07-10T17:32:28.191Z,8.67
2018-07-10T17:34:56.934Z,8.20
2018-07-10T17:37:25.575Z,8.17
2018-07-10T17:39:55.038Z,8.07
2018-07-10T17:42:23.538Z,7.50
2018-07-10T17:44:52.195Z,8.67
2018-07-10T17:47:20.621Z,8.40
2018-07-10T17:49:49.155Z,8.07
2018-07-10T17:52:18.079Z,8.40
2018-07-10T17:54:46.589Z,7.63
2018-07-10T17:57:15.123Z,7.80
2018-07-10T17:59:44.137Z,7.90
2018-07-10T18:02:12.864Z,8.53
2018-07-10T18:04:41.337Z,8.07
2018-07-10T18:07:09.907Z,8.97
2018-07-10T18:09:41.246Z,8.57
2018-07-10T18:12:09.805Z,8.53
2018-07-10T18:14:38.267Z,8.37
2018-07-10T18:17:06.845Z,8.33
2018-07-10T18:19:35.342Z,8.20
2018-07-10T18:22:03.831Z,8.97
2018-07-10T18:24:32.339Z,8.70
2018-07-10T18:27:00.454Z,8.27
2018-07-10T18:29:29.237Z,7.87
2018-07-10T18:31:57.717Z,8.13
2018-07-10T18:34:26.238Z,8.87
2018-07-10T18:36:54.707Z,9.53
2018-07-10T18:39:23.150Z,9.03
2018-07-10T18:41:51.675Z,8.97
2018-07-10T18:44:21.174Z,8.57
2018-07-10T18:46:49.615Z,8.67
2018-07-10T18:49:19.637Z,9.23
2018-07-10T18:51:48.835Z,8.80
2018-07-10T18:54:23.175Z,9.43
2018-07-10T18:56:51.366Z,9.03
2018-07-10T18:59:20.089Z,9.50
2018-07-10T19:01:54.362Z,8.70
2018-07-10T19:04:30.974Z,10.37
2018-07-10T19:06:59.102Z,9.63
2018-07-10T19:09:32.792Z,9.23
2018-07-10T19:12:02.384Z,9.47
2018-07-10T19:14:30.912Z,9.17
2018-07-10T19:16:59.638Z,9.40
2018-07-10T19:19:28.170Z,9.30
2018-07-10T19:22:02.279Z,9.33
2018-07-10T19:24:30.955Z,9.77
2018-07-10T19:27:00.015Z,9.67
2018-07-10T19:29:40.119Z,9.13
2018-07-10T19:32:08.676Z,9.13
2018-07-10T19:34:37.533Z,9.93
2018-07-10T19:37:05.795Z,9.50
2018-07-10T19:39:34.904Z,10.23
2018-07-10T19:42:04.800Z,10.03
2018-07-10T19:44:32.950Z,9.60
2018-07-10T19:47:01.451Z,9.73
2018-07-10T19:49:30.239Z,9.70
2018-07-10T19:51:59.158Z,10.60
2018-07-10T19:54:27.768Z,9.03
2018-07-10T19:56:56.224Z,10.13
2018-07-10T19:59:24.814Z,9.80
2018-07-10T20:01:55.704Z,9.90
2018-07-10T20:05:05.703Z,9.37
2018-07-10T20:07:42.745Z,9.87
2018-07-10T20:10:16.485Z,10.10
2018-07-10T20:12:58.804Z,10.87
2018-07-10T20:16:39.293Z,10.33
2018-07-10T20:19:30.738Z,9.50
2018-07-10T20:22:16.857Z,9.80
2018-07-10T20:24:55.210Z,9.53
2018-07-10T20:27:57.515Z,9.37
2018-07-10T20:30:35.615Z,9.67
2018-07-10T20:33:15.567Z,9.67
2018-07-10T20:35:48.592Z,9.70
2018-07-10T20:38:17.424Z,9.43
2018-07-10T20:40:45.892Z,9.70
2018-07-10T20:43:16.968Z,9.23
2018-07-10T20:45:49.171Z,8.53
2018-07-10T20:49:28.051Z,8.90
2018-07-10T20:52:02.471Z,8.90
2018-07-10T20:55:07.933Z,8.80
2018-07-10T20:57:41.072Z,8.87
2018-07-10T21:00:11.388Z,9.00
2018-07-10T21:04:53.229Z,9.03
2018-07-10T21:07:27.988Z,9.20
2018-07-10T21:10:11.566Z,8.73
2018-07-10T21:12:55.739Z,8.30
2018-07-10T21:15:32.596Z,8.70
2018-07-10T21:18:06.721Z,8.90
2018-07-10T21:22:14.827Z,8.43
2018-07-10T21:24:46.286Z,8.43
2018-07-10T21:27:28.422Z,8.10
2018-07-10T21:30:18.194Z,9.23
2018-07-10T21:32:56.657Z,9.03
2018-07-10T21:35:29.527Z,8.83
2018-07-10T21:38:07.336Z,9.27
2018-07-10T21:40:41.695Z,8.93
2018-07-10T21:43:20.491Z,9.10
2018-07-10T21:46:57.331Z,8.93
2018-07-10T21:50:04.203Z,8.37
2018-07-10T21:52:32.757Z,8.53
2018-07-10T21:55:01.948Z,8.67
2018-07-10T21:57:38.872Z,9.30
2018-07-10T22:00:07.351Z,9.00
2018-07-10T22:02:35.907Z,8.97
2018-07-10T22:05:04.015Z,9.40
2018-07-10T22:07:32.520Z,8.87
2018-07-10T22:10:05.611Z,8.80
2018-07-10T22:12:49.727Z,8.50
2018-07-10T22:15:18.155Z,8.87
2018-07-10T22:17:47.720Z,9.27
2018-07-10T22:20:16.746Z,8.80
2018-07-10T22:22:45.592Z,9.07
2018-07-10T22:25:14.083Z,9.23
2018-07-10T22:27:44.192Z,9.07
2018-07-10T22:30:20.488Z,8.70
2018-07-10T22:32:54.192Z,9.00
2018-07-10T22:35:23.603Z,8.27
2018-07-10T22:37:52.868Z,8.63
2018-07-10T22:40:21.294Z,8.33
2018-07-10T22:42:49.728Z,8.53
2018-07-10T22:45:19.253Z,8.60
2018-07-10T22:47:47.703Z,8.80
2018-07-10T22:50:17.878Z,8.47
2018-07-10T22:52:54.760Z,8.00
2018-07-10T22:55:24.057Z,8.03
2018-07-10T22:57:52.514Z,8.57
2018-07-10T23:00:27.582Z,7.87
2018-07-10T23:02:55.641Z,8.27
2018-07-10T23:05:23.809Z,7.90
2018-07-10T23:07:52.343Z,8.03
2018-07-10T23:10:20.820Z,8.23
2018-07-10T23:12:49.618Z,8.37
2018-07-10T23:15:18.030Z,8.27
2018-07-10T23:17:46.473Z,7.90
2018-07-10T23:20:14.861Z,7.87
2018-07-10T23:22:53.782Z,7.60
2018-07-10T23:25:23.798Z,8.17
2018-07-10T23:28:00.713Z,8.83
2018-07-10T23:30:32.006Z,8.33
2018-07-10T23:33:00.395Z,9.00
2018-07-10T23:35:31.267Z,8.53
2018-07-10T23:38:06.241Z,8.07
2018-07-10T23:40:35.643Z,8.40
2018-07-10T23:43:04.033Z,8.30
2018-07-10T23:45:32.633Z,8.53
2018-07-10T23:48:06.098Z,8.07
2018-07-10T23:50:35.972Z,7.97
2018-07-10T23:53:31.411Z,8.63
2018-07-10T23:55:59.504Z,8.30
2018-07-10T23:58:28.162Z,7.90
